createdAt,value
2022-08-21T00:01:42.936Z,2.70
2022-08-21T00:04:10.546Z,2.15
2022-08-21T00:06:37.923Z,2.42
2022-08-21T00:09:06.920Z,2.55
2022-08-21T00:11:37.176Z,2.50
2022-08-21T00:14:05.265Z,2.70
2022-08-21T00:16:31.766Z,2.47
2022-08-21T00:18:58.676Z,2.50
2022-08-21T00:21:26.507Z,2.53
2022-08-21T00:23:53.261Z,2.30
2022-08-21T00:26:19.786Z,2.20
2022-08-21T00:28:47.050Z,2.38
2022-08-21T00:31:13.631Z,2.53
2022-08-21T00:33:40.222Z,2.10
2022-08-21T00:36:06.930Z,2.53
2022-08-21T00:38:34.459Z,2.40
2022-08-21T00:41:32.230Z,2.10
2022-08-21T00:43:51.286Z,2.63
2022-08-21T00:46:18.865Z,2.30
2022-08-21T00:48:45.457Z,2.22
2022-08-21T00:51:23.899Z,2.38
2022-08-21T00:53:54.502Z,2.60
2022-08-21T00:56:23.903Z,2.45
2022-08-21T00:58:55.035Z,2.10
2022-08-21T01:01:22.471Z,2.83
2022-08-21T01:03:50.152Z,2.40
2022-08-21T01:06:17.182Z,2.35
2022-08-21T01:08:47.080Z,2.67
2022-08-21T01:11:16.005Z,2.30
2022-08-21T01:13:47.031Z,2.83
2022-08-21T01:16:17.800Z,2.80
2022-08-21T01:18:45.835Z,2.80
2022-08-21T01:21:28.369Z,2.35
2022-08-21T01:23:56.766Z,2.78
2022-08-21T01:26:33.756Z,2.78
2022-08-21T01:29:06.580Z,3.20
2022-08-21T01:31:33.982Z,2.88
2022-08-21T01:34:00.805Z,2.20
2022-08-21T01:36:27.736Z,2.92
2022-08-21T01:38:54.391Z,2.63
2022-08-21T01:41:20.966Z,2.50
2022-08-21T01:43:47.682Z,2.67
2022-08-21T01:46:15.419Z,2.33
2022-08-21T01:48:42.964Z,2.53
2022-08-21T01:51:09.839Z,2.63
2022-08-21T01:53:37.653Z,2.30
2022-08-21T01:56:11.886Z,2.10
2022-08-21T01:58:40.851Z,2.58
2022-08-21T02:01:07.653Z,2.90
2022-08-21T02:03:36.170Z,2.90
2022-08-21T02:06:04.559Z,2.42
2022-08-21T02:08:31.279Z,2.75
2022-08-21T02:10:57.799Z,2.80
2022-08-21T02:13:24.390Z,2.55
2022-08-21T02:15:50.822Z,2.50
2022-08-21T02:18:17.257Z,2.40
2022-08-21T02:20:48.266Z,2.78
2022-08-21T02:23:15.785Z,2.40
2022-08-21T02:25:43.085Z,2.28
2022-08-21T02:28:12.812Z,2.60
2022-08-21T02:30:46.087Z,2.60
2022-08-21T02:33:13.646Z,2.57
2022-08-21T02:35:43.035Z,2.53
2022-08-21T02:38:13.057Z,2.35
2022-08-21T02:40:43.884Z,2.50
2022-08-21T02:43:16.442Z,2.50
2022-08-21T02:45:45.529Z,2.60
2022-08-21T02:48:15.667Z,2.70
2022-08-21T02:50:45.411Z,2.20
2022-08-21T02:53:17.188Z,2.50
2022-08-21T02:55:48.567Z,2.53
2022-08-21T02:58:18.630Z,2.13
2022-08-21T03:00:45.762Z,2.30
2022-08-21T03:03:15.427Z,2.17
2022-08-21T03:05:42.050Z,2.65
2022-08-21T03:08:11.306Z,2.22
2022-08-21T03:10:44.098Z,2.47
2022-08-21T03:13:11.455Z,2.65
2022-08-21T03:15:39.280Z,2.45
2022-08-21T03:18:06.636Z,2.55
2022-08-21T03:20:35.143Z,2.50
2022-08-21T03:23:02.776Z,2.60
2022-08-21T03:25:40.440Z,2.55
2022-08-21T03:28:13.331Z,2.38
2022-08-21T03:30:47.397Z,2.20
2022-08-21T03:33:15.437Z,2.58
2022-08-21T03:35:43.997Z,2.80
2022-08-21T03:38:10.771Z,2.28
2022-08-21T03:40:37.228Z,2.30
2022-08-21T03:43:03.673Z,2.25
2022-08-21T03:45:30.272Z,2.63
2022-08-21T03:47:58.650Z,2.50
2022-08-21T03:50:27.806Z,1.95
2022-08-21T03:52:55.089Z,2.42
2022-08-21T03:55:21.857Z,2.33
2022-08-21T03:57:48.351Z,2.35
2022-08-21T04:00:16.563Z,2.20
2022-08-21T04:02:44.574Z,2.45
2022-08-21T04:05:13.665Z,2.85
2022-08-21T04:07:40.179Z,2.20
2022-08-21T04:10:08.081Z,2.60
2022-08-21T04:12:34.652Z,2.28
2022-08-21T04:15:02.729Z,2.40
2022-08-21T04:17:29.231Z,2.47
2022-08-21T04:19:56.005Z,2.42
2022-08-21T04:22:22.794Z,2.47
2022-08-21T04:24:49.231Z,2.47
2022-08-21T04:27:15.718Z,2.55
2022-08-21T04:29:42.154Z,2.47
2022-08-21T04:32:08.747Z,2.55
2022-08-21T04:34:35.239Z,2.13
2022-08-21T04:37:01.666Z,2.08
2022-08-21T04:39:29.777Z,2.53
2022-08-21T04:41:56.672Z,2.50
2022-08-21T04:44:23.125Z,2.60
2022-08-21T04:46:49.579Z,2.20
2022-08-21T04:49:16.025Z,2.20
2022-08-21T04:51:42.633Z,2.25
2022-08-21T04:54:17.575Z,2.20
2022-08-21T04:56:47.305Z,2.33
2022-08-21T04:59:18.301Z,2.53
2022-08-21T05:01:46.064Z,2.35
2022-08-21T05:04:17.710Z,2.72
2022-08-21T05:06:47.598Z,2.35
2022-08-21T05:09:17.353Z,2.63
2022-08-21T05:11:44.859Z,2.55
2022-08-21T05:14:12.482Z,2.20
2022-08-21T05:16:39.570Z,2.55
2022-08-21T05:19:07.255Z,2.40
2022-08-21T05:21:35.672Z,2.22
2022-08-21T05:24:02.639Z,2.30
2022-08-21T05:26:29.124Z,2.40
2022-08-21T05:28:55.562Z,2.30
2022-08-21T05:31:24.065Z,2.67
2022-08-21T05:33:50.498Z,2.30
2022-08-21T05:36:19.339Z,2.15
2022-08-21T05:38:46.135Z,2.50
2022-08-21T05:41:12.765Z,2.28
2022-08-21T05:43:39.241Z,2.28
2022-08-21T05:46:07.433Z,2.45
2022-08-21T05:48:35.321Z,2.30
2022-08-21T05:51:08.056Z,2.40
2022-08-21T05:53:34.541Z,2.42
2022-08-21T05:56:01.314Z,2.40
2022-08-21T05:58:27.807Z,2.20
2022-08-21T06:00:54.415Z,2.42
2022-08-21T06:03:25.323Z,2.35
2022-08-21T06:05:52.814Z,2.25
2022-08-21T06:08:20.383Z,2.53
2022-08-21T06:10:48.805Z,2.65
2022-08-21T06:13:16.607Z,2.70
2022-08-21T06:15:43.365Z,2.28
2022-08-21T06:18:10.211Z,2.40
2022-08-21T06:20:37.012Z,2.40
2022-08-21T06:23:03.954Z,2.60
2022-08-21T06:25:30.817Z,2.10
2022-08-21T06:28:07.713Z,2.50
2022-08-21T06:30:34.858Z,2.30
2022-08-21T06:33:02.476Z,2.40
2022-08-21T06:35:30.060Z,2.58
2022-08-21T06:37:58.360Z,2.00
2022-08-21T06:40:25.866Z,2.20
2022-08-21T06:42:52.405Z,2.30
2022-08-21T06:45:18.919Z,2.80
2022-08-21T06:47:45.437Z,2.03
2022-08-21T06:50:11.886Z,2.30
2022-08-21T06:52:38.838Z,2.63
2022-08-21T06:55:08.368Z,2.45
2022-08-21T06:57:35.314Z,2.20
2022-08-21T07:00:03.797Z,2.40
2022-08-21T07:02:30.513Z,2.50
2022-08-21T07:04:56.973Z,2.30
2022-08-21T07:07:23.526Z,2.13
2022-08-21T07:09:49.946Z,2.58
2022-08-21T07:12:16.562Z,2.33
2022-08-21T07:14:43.755Z,2.38
2022-08-21T07:17:10.299Z,2.22
2022-08-21T07:19:36.767Z,2.35
2022-08-21T07:22:03.422Z,2.30
2022-08-21T07:24:30.270Z,2.53
2022-08-21T07:26:56.807Z,2.55
2022-08-21T07:29:23.313Z,2.20
2022-08-21T07:31:49.824Z,2.17
2022-08-21T07:34:17.363Z,2.10
2022-08-21T07:36:43.842Z,1.83
2022-08-21T07:39:10.287Z,2.03
2022-08-21T07:41:36.745Z,2.47
2022-08-21T07:44:04.040Z,1.88
2022-08-21T07:46:33.174Z,2.10
2022-08-21T07:48:59.656Z,2.03
2022-08-21T07:51:28.547Z,2.33
2022-08-21T07:53:57.917Z,2.30
2022-08-21T07:56:24.509Z,2.42
2022-08-21T07:58:50.997Z,2.50
2022-08-21T08:01:17.890Z,2.30
2022-08-21T08:03:44.645Z,2.05
2022-08-21T08:06:13.266Z,2.53
2022-08-21T08:08:41.559Z,2.60
2022-08-21T08:11:11.653Z,2.10
2022-08-21T08:13:43.101Z,2.45
2022-08-21T08:16:10.079Z,2.30
2022-08-21T08:18:36.656Z,2.28
2022-08-21T08:21:04.379Z,2.72
2022-08-21T08:23:31.491Z,2.60
2022-08-21T08:25:58.112Z,2.90
2022-08-21T08:28:25.533Z,2.38
2022-08-21T08:30:52.465Z,2.63
2022-08-21T08:33:18.974Z,2.75
2022-08-21T08:35:48.489Z,2.83
2022-08-21T08:38:19.656Z,2.95
2022-08-21T08:41:08.899Z,2.63
2022-08-21T08:43:35.846Z,2.80
2022-08-21T08:46:06.850Z,2.13
2022-08-21T08:48:52.802Z,2.88
2022-08-21T08:51:26.496Z,2.60
2022-08-21T08:53:58.175Z,2.15
2022-08-21T08:56:30.715Z,2.13
2022-08-21T08:59:08.063Z,2.50
2022-08-21T09:01:38.754Z,2.30
2022-08-21T09:04:06.884Z,2.60
2022-08-21T09:06:51.303Z,2.58
2022-08-21T09:12:03.029Z,2.28
2022-08-21T09:14:54.120Z,2.40
2022-08-21T09:17:45.189Z,2.38
2022-08-21T09:20:41.523Z,2.47
2022-08-21T09:23:47.671Z,2.47
2022-08-21T09:26:18.019Z,2.88
2022-08-21T09:28:45.799Z,2.50
2022-08-21T09:31:35.397Z,2.53
2022-08-21T09:34:10.965Z,2.63
2022-08-21T09:36:46.770Z,2.88
2022-08-21T09:39:23.383Z,2.83
2022-08-21T09:41:59.279Z,2.55
2022-08-21T09:44:32.774Z,2.83
2022-08-21T09:46:59.252Z,2.35
2022-08-21T09:49:37.193Z,2.78
2022-08-21T09:52:07.570Z,2.92
2022-08-21T09:54:38.243Z,3.03
2022-08-21T09:57:29.394Z,2.70
2022-08-21T09:59:56.314Z,2.95
2022-08-21T10:02:32.174Z,2.70
2022-08-21T10:05:00.208Z,2.60
2022-08-21T10:07:31.133Z,2.65
2022-08-21T10:10:06.024Z,2.47
2022-08-21T10:13:02.778Z,2.80
2022-08-21T10:15:43.823Z,3.20
2022-08-21T10:18:30.911Z,2.65
2022-08-21T10:21:12.256Z,3.03
2022-08-21T10:23:51.810Z,2.80
2022-08-21T10:26:49.561Z,3.10
2022-08-21T10:29:40.479Z,3.05
2022-08-21T10:32:31.849Z,2.70
2022-08-21T10:35:03.107Z,3.17
2022-08-21T10:37:47.264Z,2.72
2022-08-21T10:40:23.094Z,3.17
2022-08-21T10:43:01.554Z,3.00
2022-08-21T10:45:40.142Z,3.00
2022-08-21T10:48:14.097Z,3.50
2022-08-21T10:50:50.294Z,2.78
2022-08-21T10:53:33.662Z,3.00
2022-08-21T10:56:27.179Z,3.33
2022-08-21T10:59:26.753Z,2.72
2022-08-21T11:02:09.960Z,2.78
2022-08-21T11:04:54.769Z,2.80
2022-08-21T11:07:34.016Z,3.05
2022-08-21T11:10:12.114Z,2.92
2022-08-21T11:12:45.778Z,2.78
2022-08-21T11:18:42.609Z,2.90
2022-08-21T11:21:40.091Z,2.70
2022-08-21T11:24:34.958Z,3.13
2022-08-21T11:27:15.983Z,2.95
2022-08-21T11:29:48.702Z,3.10
2022-08-21T11:32:36.794Z,3.17
2022-08-21T11:35:11.953Z,2.83
2022-08-21T11:37:56.737Z,2.90
2022-08-21T11:40:38.572Z,3.08
2022-08-21T11:43:13.234Z,2.72
2022-08-21T11:45:52.631Z,2.70
2022-08-21T11:48:49.711Z,2.55
2022-08-21T11:51:29.395Z,2.58
2022-08-21T11:54:10.149Z,2.78
2022-08-21T11:56:43.494Z,2.38
2022-08-21T11:59:13.994Z,2.45
2022-08-21T12:01:46.211Z,2.80
2022-08-21T12:04:43.046Z,2.20
2022-08-21T12:07:18.634Z,2.15
2022-08-21T12:09:57.165Z,2.28
2022-08-21T12:12:30.395Z,2.20
2022-08-21T12:15:18.117Z,2.10
2022-08-21T12:17:56.797Z,2.05
2022-08-21T12:20:30.402Z,2.45
2022-08-21T12:23:05.676Z,2.30
2022-08-21T12:25:48.495Z,2.15
2022-08-21T12:28:22.617Z,2.15
2022-08-21T12:30:52.060Z,2.38
2022-08-21T12:33:37.082Z,2.30
2022-08-21T12:36:17.363Z,2.22
2022-08-21T12:38:52.030Z,2.08
2022-08-21T12:41:48.810Z,2.13
2022-08-21T12:44:22.279Z,1.77
2022-08-21T12:46:58.565Z,2.20
2022-08-21T12:49:36.018Z,2.22
2022-08-21T12:52:12.608Z,2.00
2022-08-21T12:54:44.395Z,1.92
2022-08-21T12:57:21.672Z,1.77
2022-08-21T12:59:55.700Z,2.13
2022-08-21T13:02:27.180Z,2.08
2022-08-21T13:04:56.464Z,2.10
2022-08-21T13:07:33.059Z,2.20
2022-08-21T13:10:19.997Z,2.50
2022-08-21T13:12:47.511Z,2.17
2022-08-21T13:15:14.874Z,2.03
2022-08-21T13:17:52.535Z,2.20
2022-08-21T13:20:24.436Z,1.95
2022-08-21T13:22:51.783Z,2.03
2022-08-21T13:25:22.481Z,1.80
2022-08-21T13:28:12.492Z,1.60
2022-08-21T13:30:44.238Z,2.20
2022-08-21T13:33:13.507Z,1.88
2022-08-21T13:35:58.096Z,2.03
2022-08-21T13:38:28.106Z,2.10
2022-08-21T13:41:31.732Z,2.00
2022-08-21T13:44:01.551Z,2.22
2022-08-21T13:46:31.587Z,1.80
2022-08-21T13:49:01.118Z,2.08
2022-08-21T13:51:28.073Z,1.98
2022-08-21T13:53:56.220Z,2.17
2022-08-21T13:56:41.955Z,2.00
2022-08-21T13:59:08.492Z,2.00
2022-08-21T14:01:58.133Z,2.00
2022-08-21T14:04:31.869Z,1.80
2022-08-21T14:06:58.711Z,1.70
2022-08-21T14:09:31.976Z,2.03
2022-08-21T14:12:02.162Z,2.10
2022-08-21T14:14:34.784Z,1.95
2022-08-21T14:17:24.015Z,2.33
2022-08-21T14:19:52.255Z,1.98
2022-08-21T14:22:31.351Z,1.80
2022-08-21T14:25:21.024Z,2.00
2022-08-21T14:27:50.461Z,1.65
2022-08-21T14:30:22.004Z,2.08
2022-08-21T14:32:48.940Z,2.10
2022-08-21T14:35:15.745Z,2.00
2022-08-21T14:37:43.509Z,2.65
2022-08-21T14:40:10.896Z,2.05
2022-08-21T14:42:38.179Z,2.50
2022-08-21T14:45:24.746Z,2.08
2022-08-21T14:47:54.897Z,2.00
2022-08-21T14:50:21.486Z,2.30
2022-08-21T14:52:48.004Z,1.90
2022-08-21T14:55:17.681Z,2.10
2022-08-21T14:57:50.897Z,2.40
2022-08-21T15:00:23.761Z,2.17
2022-08-21T15:02:53.651Z,1.90
2022-08-21T15:05:31.507Z,2.55
2022-08-21T15:07:59.698Z,2.42
2022-08-21T15:10:26.231Z,2.45
2022-08-21T15:12:52.762Z,2.00
2022-08-21T15:15:19.226Z,2.10
2022-08-21T15:17:48.292Z,2.28
2022-08-21T15:20:15.274Z,2.20
2022-08-21T15:22:41.772Z,2.20
2022-08-21T15:25:14.364Z,2.20
2022-08-21T15:27:41.112Z,2.10
2022-08-21T15:30:08.640Z,1.85
2022-08-21T15:32:35.212Z,2.30
2022-08-21T15:35:03.261Z,2.15
2022-08-21T15:37:30.041Z,2.05
2022-08-21T15:39:56.511Z,2.13
2022-08-21T15:42:24.323Z,2.38
2022-08-21T15:44:51.155Z,2.45
2022-08-21T15:47:21.949Z,1.90
2022-08-21T15:49:48.951Z,2.13
2022-08-21T15:52:19.351Z,2.20
2022-08-21T15:54:46.347Z,2.40
2022-08-21T15:57:14.940Z,1.98
2022-08-21T15:59:44.725Z,2.45
2022-08-21T16:02:16.630Z,2.00
2022-08-21T16:04:43.171Z,2.17
2022-08-21T16:07:10.409Z,2.40
2022-08-21T16:09:37.464Z,2.20
2022-08-21T16:12:06.478Z,2.22
2022-08-21T16:14:37.007Z,1.95
2022-08-21T16:17:08.342Z,2.03
2022-08-21T16:19:36.722Z,2.10
2022-08-21T16:22:03.401Z,2.30
2022-08-21T16:24:29.967Z,2.22
2022-08-21T16:26:58.310Z,1.85
2022-08-21T16:29:28.608Z,2.25
2022-08-21T16:31:55.850Z,2.13
2022-08-21T16:34:22.330Z,2.33
2022-08-21T16:36:48.800Z,1.90
2022-08-21T16:39:15.344Z,1.80
2022-08-21T16:41:41.890Z,2.05
2022-08-21T16:44:09.786Z,2.03
2022-08-21T16:46:40.814Z,2.08
2022-08-21T16:49:07.938Z,2.20
2022-08-21T16:51:34.514Z,2.42
2022-08-21T16:54:01.317Z,2.10
2022-08-21T16:56:27.854Z,2.10
2022-08-21T16:58:56.267Z,2.28
2022-08-21T17:01:26.426Z,1.95
2022-08-21T17:03:53.889Z,2.03
2022-08-21T17:06:23.779Z,1.92
2022-08-21T17:08:55.573Z,1.95
2022-08-21T17:11:37.549Z,2.13
2022-08-21T17:14:20.957Z,1.83
2022-08-21T17:16:51.179Z,1.98
2022-08-21T17:19:19.191Z,2.13
2022-08-21T17:21:45.810Z,2.20
2022-08-21T17:24:15.440Z,1.92
2022-08-21T17:26:43.921Z,1.98
2022-08-21T17:29:12.525Z,2.25
2022-08-21T17:31:40.847Z,2.00
2022-08-21T17:34:08.532Z,1.73
2022-08-21T17:36:35.565Z,2.03
2022-08-21T17:39:02.264Z,1.92
2022-08-21T17:41:28.792Z,2.10
2022-08-21T17:43:55.476Z,1.83
2022-08-21T17:46:26.717Z,1.77
2022-08-21T17:48:53.802Z,1.90
2022-08-21T17:51:20.611Z,2.03
2022-08-21T17:53:47.120Z,2.17
2022-08-21T17:56:16.413Z,2.35
2022-08-21T17:58:47.204Z,1.90
2022-08-21T18:01:13.899Z,2.30
2022-08-21T18:03:40.729Z,2.10
2022-08-21T18:06:07.431Z,2.17
2022-08-21T18:08:34.676Z,2.20
2022-08-21T18:11:01.327Z,2.25
2022-08-21T18:13:35.304Z,1.70
2022-08-21T18:16:03.122Z,1.63
2022-08-21T18:18:39.887Z,2.90
2022-08-21T18:21:06.656Z,2.05
2022-08-21T18:23:44.368Z,2.30
2022-08-21T18:26:14.291Z,2.47
2022-08-21T18:28:40.913Z,2.28
2022-08-21T18:31:09.747Z,2.17
2022-08-21T18:33:37.675Z,2.17
2022-08-21T18:36:04.832Z,2.53
2022-08-21T18:38:31.514Z,2.30
2022-08-21T18:41:09.530Z,2.50
2022-08-21T18:43:37.902Z,2.25
2022-08-21T18:46:05.071Z,2.35
2022-08-21T18:48:32.240Z,2.05
2022-08-21T18:50:59.066Z,2.20
2022-08-21T18:53:27.868Z,2.20
2022-08-21T18:55:57.068Z,2.45
2022-08-21T18:58:24.398Z,2.60
2022-08-21T19:00:52.631Z,2.40
2022-08-21T19:03:23.916Z,2.65
2022-08-21T19:05:52.193Z,2.60
2022-08-21T19:08:23.064Z,2.83
2022-08-21T19:10:52.108Z,3.05
2022-08-21T19:13:21.806Z,3.40
2022-08-21T19:15:52.637Z,3.50
2022-08-21T19:18:28.017Z,3.15
2022-08-21T19:20:56.105Z,3.08
2022-08-21T19:23:28.981Z,2.60
2022-08-21T19:28:50.553Z,2.70
2022-08-21T19:31:27.637Z,3.10
2022-08-21T19:34:01.579Z,3.13
2022-08-21T19:36:28.666Z,3.08
2022-08-21T19:38:55.165Z,3.20
2022-08-21T19:41:30.297Z,2.88
2022-08-21T19:43:59.574Z,2.92
2022-08-21T19:46:31.088Z,2.90
2022-08-21T19:48:59.007Z,2.50
2022-08-21T19:51:26.192Z,2.90
2022-08-21T19:53:57.204Z,3.10
2022-08-21T19:56:26.636Z,2.30
2022-08-21T19:58:53.539Z,2.75
2022-08-21T20:01:23.138Z,2.60
2022-08-21T20:03:54.137Z,2.55
2022-08-21T20:06:24.215Z,2.90
2022-08-21T20:08:51.518Z,2.70
2022-08-21T20:11:26.063Z,2.40
2022-08-21T20:13:53.384Z,2.45
2022-08-21T20:16:21.497Z,2.67
2022-08-21T20:18:48.915Z,2.60
2022-08-21T20:21:15.762Z,2.53
2022-08-21T20:23:48.845Z,2.58
2022-08-21T20:26:16.519Z,2.50
2022-08-21T20:28:43.133Z,2.17
2022-08-21T20:31:10.463Z,2.50
2022-08-21T20:33:37.932Z,2.35
2022-08-21T20:36:04.607Z,2.30
2022-08-21T20:38:31.686Z,2.40
2022-08-21T20:40:58.466Z,2.22
2022-08-21T20:43:26.746Z,2.35
2022-08-21T20:45:55.252Z,2.58
2022-08-21T20:48:29.016Z,1.75
2022-08-21T20:51:14.518Z,2.42
2022-08-21T20:54:00.565Z,2.63
2022-08-21T20:56:36.756Z,2.63
2022-08-21T20:59:11.290Z,2.33
2022-08-21T21:01:38.908Z,2.42
2022-08-21T21:04:13.979Z,2.55
2022-08-21T21:06:50.553Z,2.50
2022-08-21T21:09:29.343Z,2.53
2022-08-21T21:12:03.047Z,2.75
2022-08-21T21:14:41.555Z,2.65
2022-08-21T21:17:28.223Z,2.80
2022-08-21T21:20:10.419Z,3.38
2022-08-21T21:22:56.236Z,2.80
2022-08-21T21:25:39.928Z,3.25
2022-08-21T21:30:46.647Z,3.35
2022-08-21T21:33:16.597Z,3.10
2022-08-21T21:35:53.984Z,3.05
2022-08-21T21:38:51.790Z,2.70
2022-08-21T21:41:44.783Z,2.42
2022-08-21T21:44:33.808Z,2.72
2022-08-21T21:47:03.582Z,2.72
2022-08-21T21:49:36.069Z,2.60
2022-08-21T21:52:14.619Z,3.22
2022-08-21T21:55:05.324Z,3.40
2022-08-21T21:58:16.979Z,2.72
2022-08-21T22:00:52.351Z,2.72
2022-08-21T22:04:20.600Z,3.10
2022-08-21T22:07:12.438Z,2.75
2022-08-21T22:09:44.523Z,2.45
2022-08-21T22:12:29.797Z,2.95
2022-08-21T22:14:57.187Z,2.83
2022-08-21T22:17:46.395Z,3.08
2022-08-21T22:20:34.435Z,2.72
2022-08-21T22:23:06.652Z,3.00
2022-08-21T22:25:42.279Z,2.70
2022-08-21T22:28:13.667Z,2.53
2022-08-21T22:30:50.222Z,2.80
2022-08-21T22:33:29.273Z,2.83
2022-08-21T22:35:58.824Z,2.90
2022-08-21T22:38:33.736Z,2.90
2022-08-21T22:41:17.293Z,2.90
2022-08-21T22:43:51.724Z,2.67
2022-08-21T22:49:05.170Z,2.53
2022-08-21T22:51:42.512Z,2.65
2022-08-21T22:54:21.652Z,3.03
2022-08-21T22:56:59.214Z,2.78
2022-08-21T22:59:29.832Z,2.53
2022-08-21T23:02:07.324Z,2.70
2022-08-21T23:04:48.195Z,2.78
2022-08-21T23:07:34.034Z,2.72
2022-08-21T23:10:01.262Z,2.67
2022-08-21T23:12:37.111Z,2.72
2022-08-21T23:18:21.098Z,3.03
2022-08-21T23:20:57.578Z,2.50
2022-08-21T23:23:30.842Z,2.72
2022-08-21T23:26:25.536Z,2.70
2022-08-21T23:29:12.597Z,2.95
2022-08-21T23:32:19.382Z,2.88
2022-08-21T23:35:10.287Z,3.13
2022-08-21T23:37:51.654Z,2.85
2022-08-21T23:40:50.487Z,2.67
2022-08-21T23:43:44.170Z,3.17
2022-08-21T23:46:47.763Z,3.08
2022-08-21T23:49:45.189Z,2.83
2022-08-21T23:52:34.968Z,2.80
2022-08-21T23:55:13.549Z,2.75
2022-08-21T23:58:12.273Z,3.30
